createdAt,value
2022-12-04T00:00:18.194Z,5.90
2022-12-04T00:02:48.230Z,5.92
2022-12-04T00:05:21.256Z,5.95
2022-12-04T00:07:51.639Z,5.93
2022-12-04T00:10:21.846Z,5.84
2022-12-04T00:12:51.923Z,5.74
2022-12-04T00:15:26.695Z,5.61
2022-12-04T00:17:57.635Z,5.55
2022-12-04T00:20:30.339Z,5.46
2022-12-04T00:23:00.379Z,5.43
2022-12-04T00:25:30.479Z,5.35
2022-12-04T00:28:00.780Z,5.36
2022-12-04T00:30:30.878Z,5.33
2022-12-04T00:33:00.963Z,5.34
2022-12-04T00:35:33.634Z,5.30
2022-12-04T00:38:03.948Z,5.32
2022-12-04T00:40:34.220Z,5.37
2022-12-04T00:43:08.306Z,5.36
2022-12-04T00:45:38.357Z,5.47
2022-12-04T00:48:08.981Z,5.46
2022-12-04T00:50:42.424Z,5.46
2022-12-04T00:53:12.553Z,5.41
2022-12-04T00:55:43.367Z,5.42
2022-12-04T00:58:14.235Z,5.32
2022-12-04T01:00:45.577Z,5.38
2022-12-04T01:03:15.919Z,5.44
2022-12-04T01:05:48.920Z,5.45
2022-12-04T01:08:19.024Z,5.52
2022-12-04T01:10:49.096Z,5.51
2022-12-04T01:13:19.206Z,5.49
2022-12-04T01:15:50.226Z,5.47
2022-12-04T01:18:20.916Z,5.35
2022-12-04T01:20:55.533Z,5.24
2022-12-04T01:23:25.605Z,5.11
2022-12-04T01:25:57.910Z,5.02
2022-12-04T01:28:28.739Z,4.90
2022-12-04T01:31:03.379Z,4.79
2022-12-04T01:33:37.641Z,4.70
2022-12-04T01:36:13.040Z,4.65
2022-12-04T01:38:43.461Z,4.56
2022-12-04T01:41:15.688Z,4.48
2022-12-04T01:43:46.206Z,4.40
2022-12-04T01:46:16.273Z,4.33
2022-12-04T01:48:49.194Z,4.28
2022-12-04T01:51:25.691Z,4.22
2022-12-04T01:53:58.853Z,4.18
2022-12-04T01:56:35.622Z,4.10
2022-12-04T01:59:07.145Z,4.03
2022-12-04T02:01:44.161Z,4.00
2022-12-04T02:04:14.276Z,3.98
2022-12-04T02:06:46.922Z,3.96
2022-12-04T02:09:20.470Z,3.92
2022-12-04T02:12:03.169Z,3.88
2022-12-04T02:14:38.832Z,3.84
2022-12-04T02:17:20.388Z,3.84
2022-12-04T02:20:19.350Z,3.86
2022-12-04T02:23:19.816Z,3.70
2022-12-04T02:25:58.231Z,3.86
2022-12-04T02:28:37.500Z,3.87
2022-12-04T02:31:12.233Z,3.91
2022-12-04T02:33:47.011Z,3.94
2022-12-04T02:36:22.404Z,3.92
2022-12-04T02:38:58.131Z,4.00
2022-12-04T02:41:33.785Z,3.97
2022-12-04T02:44:12.248Z,3.97
2022-12-04T02:46:45.783Z,3.96
2022-12-04T02:49:18.909Z,3.96
2022-12-04T02:51:51.581Z,3.96
2022-12-04T02:54:27.955Z,3.97
2022-12-04T02:56:59.666Z,3.99
2022-12-04T02:59:36.362Z,3.99
2022-12-04T03:02:13.532Z,3.99
2022-12-04T03:04:45.424Z,3.98
2022-12-04T03:07:20.701Z,3.98
2022-12-04T03:09:55.101Z,3.97
2022-12-04T03:12:32.045Z,3.99
2022-12-04T03:15:08.640Z,3.99
2022-12-04T03:17:45.844Z,3.98
2022-12-04T03:20:18.419Z,3.91
2022-12-04T03:22:54.830Z,3.97
2022-12-04T03:25:31.893Z,3.99
2022-12-04T03:28:07.541Z,3.96
2022-12-04T03:30:46.609Z,3.96
2022-12-04T03:33:20.249Z,3.89
2022-12-04T03:35:55.703Z,3.87
2022-12-04T03:38:35.821Z,3.86
2022-12-04T03:41:08.949Z,3.88
2022-12-04T03:43:42.698Z,3.91
2022-12-04T03:46:20.858Z,3.91
2022-12-04T03:48:56.302Z,3.93
2022-12-04T03:51:33.112Z,3.92
2022-12-04T03:54:11.792Z,3.92
2022-12-04T03:56:46.468Z,3.91
2022-12-04T03:59:22.030Z,3.92
2022-12-04T04:01:58.079Z,3.92
2022-12-04T04:04:33.309Z,3.87
2022-12-04T04:07:12.171Z,3.83
2022-12-04T04:09:46.087Z,3.88
2022-12-04T04:12:21.080Z,3.85
2022-12-04T04:15:15.575Z,3.84
2022-12-04T04:18:02.846Z,3.85
2022-12-04T04:20:52.320Z,3.85
2022-12-04T04:23:37.173Z,3.82
2022-12-04T04:26:07.425Z,3.83
2022-12-04T04:28:39.752Z,3.85
2022-12-04T04:31:15.688Z,3.81
2022-12-04T04:33:55.020Z,3.79
2022-12-04T04:36:34.412Z,3.76
2022-12-04T04:39:13.196Z,3.71
2022-12-04T04:41:48.824Z,3.71
2022-12-04T04:44:24.187Z,3.69
2022-12-04T04:47:00.344Z,3.64
2022-12-04T04:49:37.764Z,3.55
2022-12-04T04:52:07.963Z,3.45
2022-12-04T04:54:40.081Z,3.35
2022-12-04T04:57:10.193Z,3.37
2022-12-04T04:59:40.212Z,3.35
2022-12-04T05:02:10.439Z,3.31
2022-12-04T05:04:43.056Z,3.30
2022-12-04T05:07:13.178Z,3.28
2022-12-04T05:09:43.330Z,3.24
2022-12-04T05:12:13.514Z,3.21
2022-12-04T05:14:43.648Z,3.18
2022-12-04T05:17:13.697Z,3.19
2022-12-04T05:19:59.236Z,3.16
2022-12-04T05:22:31.746Z,3.06
2022-12-04T05:25:02.380Z,3.10
2022-12-04T05:27:36.412Z,3.06
2022-12-04T05:30:06.791Z,3.08
2022-12-04T05:32:36.761Z,3.03
2022-12-04T05:35:11.614Z,3.00
2022-12-04T05:37:42.814Z,2.98
2022-12-04T05:40:13.915Z,2.94
2022-12-04T05:42:43.999Z,2.88
2022-12-04T05:45:14.476Z,2.86
2022-12-04T05:47:45.844Z,2.82
2022-12-04T05:50:18.523Z,2.81
2022-12-04T05:52:48.548Z,2.76
2022-12-04T05:55:18.845Z,2.69
2022-12-04T05:57:48.882Z,2.68
2022-12-04T06:00:19.988Z,2.67
2022-12-04T06:02:50.061Z,2.67
2022-12-04T06:05:22.881Z,2.65
2022-12-04T06:07:52.997Z,2.65
2022-12-04T06:10:23.162Z,2.61
2022-12-04T06:12:57.332Z,2.62
2022-12-04T06:15:27.575Z,2.61
2022-12-04T06:17:57.724Z,2.60
2022-12-04T06:20:30.598Z,2.61
2022-12-04T06:23:00.711Z,2.57
2022-12-04T06:25:30.738Z,2.58
2022-12-04T06:28:00.891Z,2.64
2022-12-04T06:30:31.010Z,2.70
2022-12-04T06:33:01.116Z,2.71
2022-12-04T06:35:33.778Z,2.84
2022-12-04T06:38:04.057Z,2.87
2022-12-04T06:40:34.078Z,2.97
2022-12-04T06:43:04.125Z,3.01
2022-12-04T06:45:34.296Z,3.02
2022-12-04T06:48:04.547Z,3.13
2022-12-04T06:50:37.310Z,3.29
2022-12-04T06:53:08.591Z,3.59
2022-12-04T06:55:38.789Z,3.89
2022-12-04T06:58:08.838Z,4.35
2022-12-04T07:00:39.103Z,5.05
2022-12-04T07:03:09.255Z,5.59
2022-12-04T07:05:42.353Z,6.24
2022-12-04T07:08:14.907Z,6.83
2022-12-04T07:10:45.807Z,7.31
2022-12-04T07:13:15.818Z,7.66
2022-12-04T07:15:45.929Z,7.56
2022-12-04T07:18:15.941Z,7.69
2022-12-04T07:20:48.672Z,7.85
2022-12-04T07:23:18.976Z,8.18
2022-12-04T07:25:49.198Z,8.43
2022-12-04T07:28:21.582Z,8.64
2022-12-04T07:30:51.800Z,8.83
2022-12-04T07:33:22.184Z,8.96
2022-12-04T07:36:01.510Z,9.16
2022-12-04T07:38:35.940Z,9.18
2022-12-04T07:41:08.525Z,8.92
2022-12-04T07:43:38.513Z,8.39
2022-12-04T07:46:10.635Z,7.94
2022-12-04T07:48:40.929Z,7.74
2022-12-04T07:51:15.027Z,7.66
2022-12-04T07:53:45.305Z,7.46
2022-12-04T07:56:16.080Z,7.29
2022-12-04T07:58:46.921Z,7.13
2022-12-04T08:01:19.665Z,7.10
2022-12-04T08:03:51.262Z,7.04
2022-12-04T08:06:26.253Z,7.05
2022-12-04T08:08:57.458Z,7.01
2022-12-04T08:11:29.836Z,6.99
2022-12-04T08:14:00.980Z,7.00
2022-12-04T08:16:32.622Z,7.08
2022-12-04T08:19:03.650Z,7.19
2022-12-04T08:21:36.577Z,7.34
2022-12-04T08:24:06.854Z,7.60
2022-12-04T08:26:36.961Z,7.87
2022-12-04T08:29:07.514Z,8.03
2022-12-04T08:31:39.175Z,8.19
2022-12-04T08:34:10.783Z,8.24
2022-12-04T08:36:43.722Z,8.34
2022-12-04T08:39:15.070Z,8.43
2022-12-04T08:41:45.095Z,8.63
2022-12-04T08:44:18.272Z,8.75
2022-12-04T08:46:48.446Z,8.63
2022-12-04T08:49:18.655Z,8.71
2022-12-04T08:51:51.252Z,8.90
2022-12-04T08:54:24.437Z,9.04
2022-12-04T08:56:59.166Z,8.97
2022-12-04T08:59:29.297Z,8.78
2022-12-04T09:01:59.494Z,9.10
2022-12-04T09:04:29.858Z,9.11
2022-12-04T09:07:02.518Z,9.14
2022-12-04T09:09:33.036Z,9.02
2022-12-04T09:12:03.139Z,8.99
2022-12-04T09:14:33.210Z,9.07
2022-12-04T09:17:03.311Z,9.13
2022-12-04T09:19:35.459Z,9.05
2022-12-04T09:22:08.152Z,9.00
2022-12-04T09:24:38.225Z,8.93
2022-12-04T09:27:14.289Z,8.90
2022-12-04T09:29:45.147Z,8.89
2022-12-04T09:32:15.821Z,8.76
2022-12-04T09:34:49.630Z,8.81
2022-12-04T09:37:25.242Z,8.86
2022-12-04T09:39:55.589Z,9.05
2022-12-04T09:42:36.345Z,9.00
2022-12-04T09:45:13.740Z,9.45
2022-12-04T09:47:48.389Z,9.37
2022-12-04T09:50:24.778Z,9.72
2022-12-04T09:53:02.063Z,9.92
2022-12-04T09:55:36.930Z,10.14
2022-12-04T09:58:09.549Z,9.79
2022-12-04T10:00:44.950Z,10.00
2022-12-04T10:03:19.587Z,10.06
2022-12-04T10:06:00.650Z,9.97
2022-12-04T10:08:37.760Z,10.18
2022-12-04T10:11:13.262Z,10.22
2022-12-04T10:14:08.282Z,10.02
2022-12-04T10:16:48.537Z,10.30
2022-12-04T10:19:27.411Z,10.27
2022-12-04T10:22:12.805Z,10.41
2022-12-04T10:24:50.993Z,10.47
2022-12-04T10:27:25.088Z,10.39
2022-12-04T10:29:59.848Z,10.52
2022-12-04T10:32:33.926Z,10.53
2022-12-04T10:35:13.148Z,10.72
2022-12-04T10:37:46.269Z,10.49
2022-12-04T10:40:24.324Z,10.80
2022-12-04T10:43:00.043Z,10.83
2022-12-04T10:45:30.059Z,10.97
2022-12-04T10:48:01.083Z,11.12
2022-12-04T10:50:31.251Z,11.03
2022-12-04T10:53:01.477Z,11.10
2022-12-04T10:55:38.435Z,11.29
2022-12-04T10:58:18.605Z,11.36
2022-12-04T11:01:06.798Z,11.44
2022-12-04T11:03:38.154Z,11.57
2022-12-04T11:06:12.196Z,11.69
2022-12-04T11:08:44.869Z,11.71
2022-12-04T11:11:19.357Z,11.72
2022-12-04T11:13:49.472Z,11.74
2022-12-04T11:16:36.691Z,11.45
2022-12-04T11:19:21.670Z,11.69
2022-12-04T11:21:52.491Z,11.82
2022-12-04T11:24:28.654Z,11.92
2022-12-04T11:27:01.618Z,11.95
2022-12-04T11:29:36.201Z,11.93
2022-12-04T11:32:09.555Z,11.75
2022-12-04T11:34:43.195Z,11.88
2022-12-04T11:37:23.229Z,11.79
2022-12-04T11:39:55.148Z,11.81
2022-12-04T11:42:30.771Z,11.83
2022-12-04T11:45:02.192Z,11.88
2022-12-04T11:47:35.741Z,11.69
2022-12-04T11:50:16.563Z,11.85
2022-12-04T11:52:59.300Z,11.90
2022-12-04T11:55:35.385Z,11.91
2022-12-04T11:58:30.512Z,11.94
2022-12-04T12:01:14.152Z,11.80
2022-12-04T12:03:56.446Z,11.93
2022-12-04T12:06:37.935Z,12.03
2022-12-04T12:09:25.792Z,12.12
2022-12-04T12:12:05.112Z,12.01
2022-12-04T12:14:47.338Z,11.55
2022-12-04T12:17:24.556Z,11.52
2022-12-04T12:20:07.179Z,11.53
2022-12-04T12:22:50.558Z,11.57
2022-12-04T12:25:24.388Z,11.74
2022-12-04T12:28:08.024Z,11.92
2022-12-04T12:31:04.069Z,11.85
2022-12-04T12:33:39.721Z,11.83
2022-12-04T12:36:11.911Z,11.82
2022-12-04T12:38:48.579Z,11.78
2022-12-04T12:41:22.296Z,11.82
2022-12-04T12:44:00.216Z,11.77
2022-12-04T12:46:38.522Z,11.70
2022-12-04T12:49:15.501Z,11.72
2022-12-04T12:51:50.012Z,11.67
2022-12-04T12:54:31.403Z,11.57
2022-12-04T12:57:08.912Z,11.47
2022-12-04T12:59:49.315Z,11.37
2022-12-04T13:02:28.521Z,11.13
2022-12-04T13:05:02.108Z,11.23
2022-12-04T13:07:40.634Z,11.07
2022-12-04T13:10:22.081Z,11.15
2022-12-04T13:12:57.653Z,11.09
2022-12-04T13:15:36.565Z,10.91
2022-12-04T13:18:12.249Z,11.01
2022-12-04T13:20:49.434Z,10.90
2022-12-04T13:23:31.941Z,10.84
2022-12-04T13:26:08.948Z,10.77
2022-12-04T13:28:50.462Z,10.68
2022-12-04T13:31:32.083Z,10.59
2022-12-04T13:34:18.759Z,10.52
2022-12-04T13:37:11.140Z,10.50
2022-12-04T13:40:11.140Z,10.40
2022-12-04T13:42:44.742Z,10.28
2022-12-04T13:45:27.631Z,10.02
2022-12-04T13:48:02.048Z,9.84
2022-12-04T13:50:36.597Z,9.78
2022-12-04T13:53:07.824Z,9.64
2022-12-04T13:55:40.230Z,9.58
2022-12-04T13:58:28.784Z,9.72
2022-12-04T14:01:13.301Z,9.51
2022-12-04T14:03:51.153Z,9.31
2022-12-04T14:06:31.589Z,9.21
2022-12-04T14:09:03.948Z,9.15
2022-12-04T14:11:44.017Z,9.10
2022-12-04T14:14:27.346Z,8.74
2022-12-04T14:16:58.516Z,8.87
2022-12-04T14:19:36.107Z,8.80
2022-12-04T14:22:08.940Z,8.73
2022-12-04T14:24:41.015Z,8.59
2022-12-04T14:27:36.689Z,8.72
2022-12-04T14:30:07.947Z,8.47
2022-12-04T14:32:38.654Z,8.34
2022-12-04T14:35:19.011Z,8.25
2022-12-04T14:37:56.410Z,8.19
2022-12-04T14:40:28.636Z,8.19
2022-12-04T14:42:58.967Z,8.18
2022-12-04T14:45:40.470Z,8.15
2022-12-04T14:48:28.967Z,8.05
2022-12-04T14:51:07.960Z,7.98
2022-12-04T14:53:47.471Z,8.01
2022-12-04T14:56:27.184Z,7.99
2022-12-04T14:58:58.414Z,7.91
2022-12-04T15:01:36.284Z,7.75
2022-12-04T15:04:29.097Z,7.64
2022-12-04T15:07:01.193Z,7.67
2022-12-04T15:09:46.378Z,7.60
2022-12-04T15:12:37.758Z,7.58
2022-12-04T15:15:17.576Z,7.38
2022-12-04T15:17:58.997Z,7.40
2022-12-04T15:20:33.392Z,7.21
2022-12-04T15:23:07.666Z,7.08
2022-12-04T15:25:48.540Z,7.01
2022-12-04T15:28:23.276Z,6.96
2022-12-04T15:30:55.370Z,6.89
2022-12-04T15:33:30.052Z,6.83
2022-12-04T15:36:03.381Z,6.95
2022-12-04T15:38:34.035Z,7.02
2022-12-04T15:41:06.731Z,6.98
2022-12-04T15:43:43.796Z,6.88
2022-12-04T15:46:17.801Z,6.87
2022-12-04T15:48:48.203Z,6.85
2022-12-04T15:51:22.112Z,6.78
2022-12-04T15:53:52.220Z,6.84
2022-12-04T15:56:25.665Z,6.86
2022-12-04T15:58:59.087Z,6.83
2022-12-04T16:01:30.318Z,6.97
2022-12-04T16:04:01.680Z,6.82
2022-12-04T16:06:33.855Z,6.76
2022-12-04T16:09:21.934Z,6.66
2022-12-04T16:12:04.087Z,6.82
2022-12-04T16:14:34.161Z,6.85
2022-12-04T16:17:06.562Z,6.86
2022-12-04T16:19:42.310Z,6.94
2022-12-04T16:22:19.422Z,7.00
2022-12-04T16:24:51.108Z,6.97
2022-12-04T16:27:26.236Z,7.04
2022-12-04T16:29:56.481Z,7.03
2022-12-04T16:32:32.851Z,7.14
2022-12-04T16:35:05.421Z,7.14
2022-12-04T16:37:35.580Z,7.12
2022-12-04T16:40:06.707Z,7.08
2022-12-04T16:42:39.748Z,7.00
2022-12-04T16:45:24.320Z,7.02
2022-12-04T16:47:54.445Z,7.02
2022-12-04T16:50:24.602Z,6.99
2022-12-04T16:52:54.757Z,6.98
2022-12-04T16:55:32.284Z,7.01
2022-12-04T16:58:05.034Z,7.06
2022-12-04T17:00:36.543Z,7.10
2022-12-04T17:03:07.680Z,7.06
2022-12-04T17:05:37.934Z,7.18
2022-12-04T17:08:08.508Z,7.25
2022-12-04T17:10:38.682Z,7.29
2022-12-04T17:13:14.064Z,7.31
2022-12-04T17:15:44.185Z,7.34
2022-12-04T17:18:20.552Z,7.35
2022-12-04T17:20:51.722Z,7.32
2022-12-04T17:23:21.783Z,7.42
2022-12-04T17:25:51.987Z,7.40
2022-12-04T17:28:25.145Z,7.43
2022-12-04T17:30:55.190Z,7.46
2022-12-04T17:33:25.271Z,7.47
2022-12-04T17:35:56.172Z,7.41
2022-12-04T17:38:26.362Z,7.35
2022-12-04T17:41:03.833Z,7.44
2022-12-04T17:43:36.779Z,7.35
2022-12-04T17:46:13.018Z,7.48
2022-12-04T17:48:43.617Z,7.52
2022-12-04T17:51:16.092Z,7.47
2022-12-04T17:53:46.352Z,7.56
2022-12-04T17:56:18.967Z,7.58
2022-12-04T17:58:52.467Z,7.60
2022-12-04T18:01:24.490Z,7.61
2022-12-04T18:03:55.533Z,7.54
2022-12-04T18:06:27.425Z,7.62
2022-12-04T18:08:58.206Z,7.60
2022-12-04T18:11:30.906Z,7.61
2022-12-04T18:14:11.432Z,7.66
2022-12-04T18:16:51.232Z,7.56
2022-12-04T18:19:22.190Z,7.68
2022-12-04T18:21:54.207Z,7.71
2022-12-04T18:24:25.167Z,7.74
2022-12-04T18:26:55.583Z,7.80
2022-12-04T18:29:30.214Z,7.84
2022-12-04T18:32:00.736Z,7.83
2022-12-04T18:34:30.872Z,7.83
2022-12-04T18:37:01.063Z,7.80
2022-12-04T18:39:31.185Z,7.91
2022-12-04T18:42:01.357Z,7.83
2022-12-04T18:44:34.079Z,7.97
2022-12-04T18:47:04.166Z,7.99
2022-12-04T18:49:34.451Z,7.92
2022-12-04T18:52:04.591Z,8.00
2022-12-04T18:54:34.733Z,7.94
2022-12-04T18:57:04.850Z,8.04
2022-12-04T18:59:38.718Z,8.00
2022-12-04T19:02:08.897Z,8.02
2022-12-04T19:04:40.867Z,7.98
2022-12-04T19:07:10.938Z,8.00
2022-12-04T19:10:09.861Z,7.97
2022-12-04T19:12:31.628Z,8.00
2022-12-04T19:15:05.380Z,7.98
2022-12-04T19:17:38.412Z,7.98
2022-12-04T19:20:10.956Z,7.88
2022-12-04T19:22:41.340Z,7.95
2022-12-04T19:25:12.187Z,7.80
2022-12-04T19:27:42.343Z,7.76
2022-12-04T19:30:16.148Z,7.60
2022-12-04T19:32:46.282Z,7.61
2022-12-04T19:35:16.401Z,7.82
2022-12-04T19:37:52.373Z,7.89
2022-12-04T19:40:23.664Z,7.90
2022-12-04T19:42:58.126Z,7.89
2022-12-04T19:45:33.926Z,7.91
2022-12-04T19:48:08.623Z,7.91
2022-12-04T19:50:39.111Z,8.00
2022-12-04T19:53:09.319Z,8.02
2022-12-04T19:55:39.513Z,8.04
2022-12-04T19:58:09.804Z,8.01
2022-12-04T20:00:43.219Z,8.00
2022-12-04T20:03:13.299Z,7.94
2022-12-04T20:05:43.375Z,7.97
2022-12-04T20:08:15.708Z,8.04
2022-12-04T20:10:46.459Z,7.90
2022-12-04T20:13:18.690Z,8.02
2022-12-04T20:15:51.428Z,8.08
2022-12-04T20:18:21.577Z,8.10
2022-12-04T20:20:57.623Z,8.14
2022-12-04T20:23:28.173Z,8.09
2022-12-04T20:25:58.383Z,8.12
2022-12-04T20:28:28.544Z,8.10
2022-12-04T20:31:01.436Z,8.10
2022-12-04T20:33:31.624Z,8.13
2022-12-04T20:36:03.736Z,8.09
2022-12-04T20:38:33.865Z,8.06
2022-12-04T20:41:05.391Z,8.12
2022-12-04T20:43:36.144Z,8.13
2022-12-04T20:46:16.820Z,8.00
2022-12-04T20:48:48.924Z,8.05
2022-12-04T20:51:20.231Z,8.03
2022-12-04T20:53:51.482Z,8.11
2022-12-04T20:56:23.504Z,8.07
2022-12-04T20:58:53.856Z,8.09
2022-12-04T21:01:27.625Z,8.07
2022-12-04T21:03:58.347Z,8.05
2022-12-04T21:06:34.597Z,8.07
2022-12-04T21:09:06.680Z,8.05
2022-12-04T21:11:40.594Z,8.05
2022-12-04T21:14:26.844Z,8.05
2022-12-04T21:17:00.011Z,8.05
2022-12-04T21:19:30.581Z,8.01
2022-12-04T21:22:01.176Z,8.08
2022-12-04T21:24:36.382Z,7.99
2022-12-04T21:27:06.771Z,8.07
2022-12-04T21:29:38.069Z,8.07
2022-12-04T21:32:10.867Z,8.04
2022-12-04T21:34:40.965Z,8.08
2022-12-04T21:37:11.016Z,8.07
2022-12-04T21:39:41.999Z,8.12
2022-12-04T21:42:25.146Z,8.18
2022-12-04T21:44:55.215Z,8.16
2022-12-04T21:47:31.394Z,8.17
2022-12-04T21:50:02.149Z,8.09
2022-12-04T21:52:32.195Z,8.12
2022-12-04T21:55:02.181Z,8.09
2022-12-04T21:57:32.271Z,8.04
2022-12-04T22:00:02.552Z,8.06
2022-12-04T22:02:38.075Z,8.09
2022-12-04T22:05:08.607Z,8.08
2022-12-04T22:07:38.769Z,7.96
2022-12-04T22:10:11.201Z,7.99
2022-12-04T22:12:49.439Z,8.06
2022-12-04T22:15:21.022Z,8.08
2022-12-04T22:17:53.725Z,8.06
2022-12-04T22:20:23.904Z,8.03
2022-12-04T22:22:53.927Z,8.01
2022-12-04T22:25:24.009Z,7.95
2022-12-04T22:27:55.991Z,7.97
2022-12-04T22:30:26.588Z,7.96
2022-12-04T22:32:59.500Z,7.98
2022-12-04T22:35:29.675Z,7.98
2022-12-04T22:37:59.675Z,7.94
2022-12-04T22:40:29.761Z,7.94
2022-12-04T22:42:59.762Z,7.95
2022-12-04T22:45:29.940Z,7.93
2022-12-04T22:48:02.872Z,7.85
2022-12-04T22:50:33.041Z,7.94
2022-12-04T22:53:03.191Z,7.86
2022-12-04T22:55:33.638Z,7.85
2022-12-04T22:58:03.799Z,7.92
2022-12-04T23:00:33.933Z,7.93
2022-12-04T23:03:06.667Z,7.88
2022-12-04T23:05:37.078Z,7.87
2022-12-04T23:08:13.769Z,7.90
2022-12-04T23:10:43.938Z,7.92
2022-12-04T23:13:14.295Z,7.95
2022-12-04T23:15:44.420Z,7.94
2022-12-04T23:18:17.580Z,7.95
2022-12-04T23:20:47.664Z,7.95
2022-12-04T23:23:17.962Z,7.97
2022-12-04T23:25:48.020Z,7.95
2022-12-04T23:28:18.200Z,7.87
2022-12-04T23:30:49.475Z,7.87
2022-12-04T23:33:22.183Z,7.67
2022-12-04T23:35:55.966Z,7.87
2022-12-04T23:38:27.947Z,7.90
2022-12-04T23:41:03.804Z,7.91
2022-12-04T23:43:34.382Z,7.85
2022-12-04T23:46:10.435Z,7.85
2022-12-04T23:48:45.863Z,7.89
2022-12-04T23:51:20.460Z,7.87
2022-12-04T23:53:51.444Z,7.80
2022-12-04T23:56:26.185Z,7.83
2022-12-04T23:58:58.735Z,7.79
